Olenegorsk, Russia
Current Conditions -  °F | °C
As of 12:00 AM on Sunday 26 Oct 2014 (Local Time) from ULMM Reporting Station
Snow Showers Snow Showers  
Wind Chill: 26°   Ceiling: 1300
Heat Index: 32°   Visibility: 3mi
Dew Point: 28°   Wind: 7mph
Humidity: 87%   Direction: 160°SSE
Pressure: 29.83"   Gusts: NA
Location:  68.15°N, 33.3°E
Report Text: ULMM 252100Z 16003MPS 4800 -SHSN BKN013CB BKN080 M00/M02 Q1010 NOSIG RMK QFE750 31190050
Loading
Personal Weather Stations






























Interactive Weather Map
Tropical Storm Tracking
New forecast layout! Learn more

10-Day Weather Forecast

Advertisements
Track Severe Weather on mobile